18:38
Airports
History
Links
Donate
Help keep this website running!
PayPal
Bitcoin
Information on this page is community maintained and may be outdated or inaccurate and is intended for reference only or PC simulator navigating.
Always use approved charts for navigating.
LIRA
CIAMPINO
CIAMPINO (LIRA)
Ciampino, Lazio, Italy (43)
(C)
Lat/Lng:41° 47' 57.22" N / 12° 35' 41.7" E
41.799228 / 12.594917
Elevation:427'ft 130mMSL
ID / ICAO:LIRA
Runways:1
Longest:(15-33) 2,204.8m 7,234ft Asphalt
Controlled:Yes
Distance To
Airport ID:
Airport Radio Frequencies
Clearance Delivery: 119.4
Ground: 121.75
Tower: 120.5, 122.1
Approach: 119.2, 119.2
Nearby VORs <50NM
Nearby NDBs
METARUpdated 07-20-17 18:20 GMT
Altimeter: 29.94
Visibility: 6.2 statute miles
Wind: 4 knots (240°)
Temp: 27°c 81°f
Humidity: 47.8%

METAR: LIRA 201820Z 24004KT 180V290 CAVOK 27/15 Q1014

(Powered by phpweather)
Runway 15 / 33
Dimensions:2204.8 x 46.9m 7234' x 154'ft
Surface:Asphalt
Edge Lights:High intensity
Runway 15 [A]Runway 33 [B]
Heading:152°TH 332°TH
Lat:
Lng:
41° 48' 29.01"N
12° 35' 19.78"E
41° 47' 25.43"N
12° 36' 3.62"E
ALS:Calvert
User Notes and Comments
Google Map
Nearby Airports
(C) Urbe 11.6 NM
LIRU (WX) NNW 335°
(C) Pratica Di Mare 12.6 NM
LIRE (WX) SW 217°
(C) GUIDONIA 15.1 NM
LIRG (WX) NNE 28°
(C) Roma Fiumicino Leonardo Da Vinci 17.7 NM
LIRF (WX) W 273°
(C) LATINA 24.0 NM
LIRL (WX) SE 137°
4 Frosinone 37.9 NM
LIRH (WX) ESE 106°
4 Rieti 45.2 NM
LIQN (WX) NNE 16°
VFR Chart
Flight Planning at SkyVector.com